createdAt,value
2023-05-14T00:00:28.018Z,0.00
2023-05-14T00:01:28.360Z,0.00
2023-05-14T00:02:28.109Z,0.00
2023-05-14T00:03:28.204Z,0.00
2023-05-14T00:04:28.054Z,0.00
2023-05-14T00:05:28.443Z,0.00
2023-05-14T00:06:28.037Z,0.00
2023-05-14T00:07:28.043Z,0.00
2023-05-14T00:08:28.181Z,0.00
2023-05-14T00:09:28.028Z,0.00
2023-05-14T00:10:28.508Z,0.00
2023-05-14T00:11:28.162Z,0.00
2023-05-14T00:12:28.070Z,0.00
2023-05-14T00:13:28.582Z,0.00
2023-05-14T00:14:28.178Z,0.00
2023-05-14T00:15:28.218Z,0.00
2023-05-14T00:16:28.264Z,0.00
2023-05-14T00:17:28.029Z,0.00
2023-05-14T00:18:28.225Z,0.00
2023-05-14T00:19:28.332Z,0.00
2023-05-14T00:20:28.410Z,0.00
2023-05-14T00:21:28.469Z,0.00
2023-05-14T00:22:28.491Z,0.00
2023-05-14T00:23:28.373Z,0.00
2023-05-14T00:24:28.893Z,0.00
2023-05-14T00:25:27.967Z,0.00
2023-05-14T00:26:28.904Z,0.00
2023-05-14T00:27:27.860Z,0.00
2023-05-14T00:28:28.388Z,0.00
2023-05-14T00:29:28.390Z,0.00
2023-05-14T00:30:28.052Z,0.00
2023-05-14T00:31:27.963Z,0.00
2023-05-14T00:32:28.124Z,0.00
2023-05-14T00:33:28.978Z,0.00
2023-05-14T00:34:27.861Z,0.00
2023-05-14T00:35:28.520Z,0.00
2023-05-14T00:36:27.784Z,0.00
2023-05-14T00:37:28.452Z,0.00
2023-05-14T00:38:28.282Z,0.00
2023-05-14T00:39:27.814Z,0.00
2023-05-14T00:40:27.835Z,0.00
2023-05-14T00:41:27.741Z,0.00
2023-05-14T00:42:27.744Z,0.00
2023-05-14T00:43:27.732Z,0.00
2023-05-14T00:44:27.771Z,0.00
2023-05-14T00:45:27.869Z,0.00
2023-05-14T00:46:27.749Z,0.00
2023-05-14T00:47:27.865Z,0.00
2023-05-14T00:48:27.768Z,0.00
2023-05-14T00:49:27.797Z,0.00
2023-05-14T00:50:27.873Z,0.00
2023-05-14T00:51:27.920Z,0.00
2023-05-14T00:52:27.702Z,0.00
2023-05-14T00:53:28.073Z,0.00
2023-05-14T00:54:28.153Z,0.00
2023-05-14T00:55:27.914Z,0.00
2023-05-14T00:56:27.649Z,0.00
2023-05-14T00:57:28.333Z,0.00
2023-05-14T00:58:28.369Z,0.00
2023-05-14T00:59:28.458Z,0.00
2023-05-14T01:00:28.004Z,0.00
2023-05-14T01:01:28.247Z,0.00
2023-05-14T01:02:27.949Z,0.00
2023-05-14T01:03:28.723Z,0.00
2023-05-14T01:04:27.604Z,0.00
2023-05-14T01:05:27.641Z,0.00
2023-05-14T01:06:27.859Z,0.00
2023-05-14T01:07:28.004Z,0.00
2023-05-14T01:08:28.115Z,0.00
2023-05-14T01:09:27.584Z,0.00
2023-05-14T01:10:28.238Z,0.00
2023-05-14T01:11:28.356Z,0.00
2023-05-14T01:12:28.513Z,0.00
2023-05-14T01:13:28.046Z,0.00
2023-05-14T01:14:27.678Z,0.00
2023-05-14T01:15:28.202Z,0.00
2023-05-14T01:16:27.672Z,0.00
2023-05-14T01:17:27.549Z,0.00
2023-05-14T01:18:27.615Z,0.00
2023-05-14T01:19:27.672Z,0.00
2023-05-14T01:20:27.707Z,0.00
2023-05-14T01:21:27.743Z,0.00
2023-05-14T01:22:27.835Z,0.00
2023-05-14T01:23:27.498Z,0.00
2023-05-14T01:24:27.626Z,0.00
2023-05-14T01:25:28.014Z,0.00
2023-05-14T01:26:28.090Z,0.00
2023-05-14T01:27:28.162Z,0.00
2023-05-14T01:28:27.560Z,0.00
2023-05-14T01:29:27.587Z,0.00
2023-05-14T01:30:28.374Z,0.00
2023-05-14T01:31:27.408Z,0.00
2023-05-14T01:32:27.700Z,0.00
2023-05-14T01:33:27.565Z,0.00
2023-05-14T01:34:27.419Z,0.00
2023-05-14T01:35:27.485Z,0.00
2023-05-14T01:36:27.541Z,0.00
2023-05-14T01:37:27.370Z,0.00
2023-05-14T01:38:27.640Z,0.00
2023-05-14T01:39:27.690Z,0.00
2023-05-14T01:40:27.740Z,0.00
2023-05-14T01:41:27.337Z,0.00
2023-05-14T01:42:27.566Z,0.00
2023-05-14T01:43:27.489Z,0.00
2023-05-14T01:44:27.328Z,0.00
2023-05-14T01:45:27.384Z,0.00
2023-05-14T01:46:27.476Z,0.00
2023-05-14T01:47:27.518Z,0.00
2023-05-14T01:48:27.577Z,0.00
2023-05-14T01:49:27.650Z,0.00
2023-05-14T01:50:27.269Z,0.00
2023-05-14T01:51:27.354Z,0.00
2023-05-14T01:52:27.265Z,0.00
2023-05-14T01:53:27.898Z,0.00
2023-05-14T01:54:27.936Z,0.00
2023-05-14T01:55:27.464Z,0.00
2023-05-14T01:56:27.291Z,0.00
2023-05-14T01:57:27.280Z,0.00
2023-05-14T01:58:27.747Z,0.00
2023-05-14T01:59:27.350Z,0.00
2023-05-14T02:00:27.929Z,0.00
2023-05-14T02:01:27.296Z,0.00
2023-05-14T02:02:27.327Z,0.00
2023-05-14T02:03:27.964Z,0.00
2023-05-14T02:04:27.682Z,0.00
2023-05-14T02:05:27.921Z,0.00
2023-05-14T02:06:28.184Z,0.00
2023-05-14T02:07:28.085Z,0.00
2023-05-14T02:08:27.238Z,0.00
2023-05-14T02:09:27.741Z,0.00
2023-05-14T02:10:28.058Z,0.00
2023-05-14T02:11:27.956Z,0.00
2023-05-14T02:12:28.017Z,0.00
2023-05-14T02:13:27.094Z,0.00
2023-05-14T02:14:27.122Z,0.00
2023-05-14T02:15:27.163Z,0.00
2023-05-14T02:16:27.282Z,0.00
2023-05-14T02:17:27.317Z,0.00
2023-05-14T02:18:27.339Z,0.00
2023-05-14T02:19:27.384Z,0.00
2023-05-14T02:20:27.061Z,0.00
2023-05-14T02:21:27.054Z,0.00
2023-05-14T02:22:27.045Z,0.00
2023-05-14T02:23:37.829Z,0.00
2023-05-14T02:24:27.067Z,0.00
2023-05-14T02:25:27.038Z,0.00
2023-05-14T02:26:27.085Z,0.00
2023-05-14T02:27:27.054Z,0.00
2023-05-14T02:28:27.127Z,0.00
2023-05-14T02:29:27.146Z,0.00
2023-05-14T02:30:27.131Z,0.00
2023-05-14T02:31:27.090Z,0.00
2023-05-14T02:32:27.219Z,0.00
2023-05-14T02:33:27.158Z,0.00
2023-05-14T02:34:27.136Z,0.00
2023-05-14T02:35:27.168Z,0.00
2023-05-14T02:36:27.164Z,0.00
2023-05-14T02:37:26.951Z,0.00
2023-05-14T02:38:27.194Z,0.00
2023-05-14T02:39:26.935Z,0.00
2023-05-14T02:40:27.207Z,0.00
2023-05-14T02:41:27.220Z,0.00
2023-05-14T02:42:26.990Z,0.00
2023-05-14T02:43:27.237Z,0.00
2023-05-14T02:44:27.003Z,0.00
2023-05-14T02:45:27.006Z,0.00
2023-05-14T02:46:27.027Z,0.00
2023-05-14T02:47:26.946Z,0.00
2023-05-14T02:48:27.059Z,0.00
2023-05-14T02:49:27.022Z,0.00
2023-05-14T02:50:26.974Z,0.00
2023-05-14T02:51:27.218Z,0.00
2023-05-14T02:52:26.869Z,0.00
2023-05-14T02:53:26.844Z,0.00
2023-05-14T02:54:27.357Z,0.00
2023-05-14T02:55:27.374Z,0.00
2023-05-14T02:56:27.183Z,0.00
2023-05-14T02:57:27.407Z,0.00
2023-05-14T02:58:28.458Z,0.00
2023-05-14T02:59:27.422Z,0.00
2023-05-14T03:00:27.178Z,0.00
2023-05-14T03:01:27.392Z,0.00
2023-05-14T03:02:27.211Z,0.00
2023-05-14T03:03:27.505Z,0.00
2023-05-14T03:04:27.480Z,0.00
2023-05-14T03:05:26.776Z,0.00
2023-05-14T03:06:27.488Z,0.00
2023-05-14T03:07:26.801Z,0.00
2023-05-14T03:08:27.232Z,0.00
2023-05-14T03:09:27.522Z,0.00
2023-05-14T03:10:27.374Z,0.00
2023-05-14T03:11:27.497Z,0.00
2023-05-14T03:12:26.770Z,0.00
2023-05-14T03:13:26.730Z,0.00
2023-05-14T03:14:26.833Z,0.00
2023-05-14T03:15:26.833Z,0.00
2023-05-14T03:16:26.938Z,0.00
2023-05-14T03:17:26.973Z,0.00
2023-05-14T03:18:27.015Z,0.00
2023-05-14T03:19:26.723Z,0.00
2023-05-14T03:20:26.798Z,0.00
2023-05-14T03:21:26.669Z,0.00
2023-05-14T03:22:26.723Z,0.00
2023-05-14T03:23:26.686Z,0.00
2023-05-14T03:24:26.827Z,0.00
2023-05-14T03:25:26.858Z,0.00
2023-05-14T03:26:26.920Z,0.00
2023-05-14T03:27:26.958Z,0.00
2023-05-14T03:28:26.877Z,0.00
2023-05-14T03:29:27.046Z,0.00
2023-05-14T03:30:27.221Z,0.00
2023-05-14T03:31:26.989Z,0.00
2023-05-14T03:32:27.259Z,0.00
2023-05-14T03:33:27.173Z,0.00
2023-05-14T03:34:26.584Z,5.62
2023-05-14T03:35:26.876Z,5.62
2023-05-14T03:36:27.114Z,5.62
2023-05-14T03:37:26.548Z,5.62
2023-05-14T03:38:26.548Z,5.62
2023-05-14T03:39:26.560Z,5.62
2023-05-14T03:40:26.639Z,5.62
2023-05-14T03:41:26.585Z,5.62
2023-05-14T03:42:26.616Z,5.62
2023-05-14T03:43:26.519Z,11.25
2023-05-14T03:44:26.532Z,11.25
2023-05-14T03:45:26.597Z,11.25
2023-05-14T03:46:26.670Z,11.25
2023-05-14T03:47:26.727Z,11.25
2023-05-14T03:48:26.771Z,11.25
2023-05-14T03:49:26.700Z,11.25
2023-05-14T03:50:26.727Z,16.88
2023-05-14T03:51:26.511Z,16.88
2023-05-14T03:52:26.500Z,16.88
2023-05-14T03:53:26.461Z,16.88
2023-05-14T03:54:26.741Z,16.88
2023-05-14T03:55:26.773Z,16.88
2023-05-14T03:56:27.942Z,22.50
2023-05-14T03:57:26.799Z,22.50
2023-05-14T03:58:26.550Z,22.50
2023-05-14T03:59:26.706Z,22.50
2023-05-14T04:00:27.478Z,22.50
2023-05-14T04:01:26.788Z,28.12
2023-05-14T04:02:27.966Z,28.12
2023-05-14T04:03:26.433Z,28.12
2023-05-14T04:04:26.453Z,28.12
2023-05-14T04:05:26.381Z,28.12
2023-05-14T04:06:26.440Z,33.75
2023-05-14T04:07:26.487Z,33.75
2023-05-14T04:08:26.412Z,33.75
2023-05-14T04:09:26.330Z,33.75
2023-05-14T04:10:26.433Z,33.75
2023-05-14T04:11:26.346Z,39.38
2023-05-14T04:12:26.353Z,39.38
2023-05-14T04:13:26.350Z,39.38
2023-05-14T04:14:26.307Z,39.38
2023-05-14T04:15:26.372Z,45.00
2023-05-14T04:16:26.466Z,45.00
2023-05-14T04:17:26.485Z,45.00
2023-05-14T04:18:26.622Z,50.62
2023-05-14T04:19:26.274Z,50.62
2023-05-14T04:20:26.626Z,50.62
2023-05-14T04:21:26.268Z,50.62
2023-05-14T04:22:26.274Z,50.62
2023-05-14T04:23:26.287Z,56.25
2023-05-14T04:24:26.304Z,56.25
2023-05-14T04:25:26.312Z,56.25
2023-05-14T04:26:26.246Z,56.25
2023-05-14T04:27:26.239Z,61.88
2023-05-14T04:28:26.246Z,61.88
2023-05-14T04:29:26.381Z,61.88
2023-05-14T04:30:26.425Z,61.88
2023-05-14T04:31:26.414Z,67.50
2023-05-14T04:32:26.424Z,67.50
2023-05-14T04:33:26.255Z,67.50
2023-05-14T04:34:26.445Z,67.50
2023-05-14T04:35:26.445Z,67.50
2023-05-14T04:36:26.233Z,73.12
2023-05-14T04:37:26.493Z,73.12
2023-05-14T04:38:26.138Z,73.12
2023-05-14T04:39:26.133Z,73.12
2023-05-14T04:40:26.462Z,78.75
2023-05-14T04:41:26.231Z,78.75
2023-05-14T04:42:26.271Z,78.75
2023-05-14T04:43:26.116Z,78.75
2023-05-14T04:44:26.277Z,84.38
2023-05-14T04:45:26.439Z,78.75
2023-05-14T04:46:26.517Z,78.75
2023-05-14T04:47:26.598Z,78.75
2023-05-14T04:48:26.640Z,78.75
2023-05-14T04:49:26.184Z,84.38
2023-05-14T04:50:26.646Z,84.38
2023-05-14T04:51:26.646Z,84.38
2023-05-14T04:52:26.672Z,84.38
2023-05-14T04:53:26.675Z,90.00
2023-05-14T04:54:26.824Z,90.00
2023-05-14T04:55:26.708Z,90.00
2023-05-14T04:56:26.154Z,95.62
2023-05-14T04:57:26.263Z,95.62
2023-05-14T04:58:26.147Z,95.62
2023-05-14T04:59:26.765Z,95.62
2023-05-14T05:00:26.741Z,95.62
2023-05-14T05:01:26.028Z,101.25
2023-05-14T05:02:26.142Z,101.25
2023-05-14T05:03:26.602Z,101.25
2023-05-14T05:04:26.827Z,101.25
2023-05-14T05:05:26.107Z,106.88
2023-05-14T05:06:25.976Z,106.88
2023-05-14T05:07:26.017Z,106.88
2023-05-14T05:08:26.063Z,106.88
2023-05-14T05:09:26.114Z,112.50
2023-05-14T05:10:26.226Z,112.50
2023-05-14T05:11:25.955Z,112.50
2023-05-14T05:12:25.979Z,112.50
2023-05-14T05:13:26.024Z,118.12
2023-05-14T05:14:26.083Z,118.12
2023-05-14T05:15:26.654Z,118.12
2023-05-14T05:16:26.165Z,118.12
2023-05-14T05:17:26.260Z,123.75
2023-05-14T05:18:26.372Z,123.75
2023-05-14T05:19:35.851Z,123.75
2023-05-14T05:20:26.430Z,123.75
2023-05-14T05:21:26.470Z,123.75
2023-05-14T05:22:26.554Z,123.75
2023-05-14T05:23:26.292Z,118.12
2023-05-14T05:24:26.665Z,112.50
2023-05-14T05:25:25.824Z,118.12
2023-05-14T05:26:25.836Z,112.50
2023-05-14T05:27:25.867Z,118.12
2023-05-14T05:28:25.871Z,123.75
2023-05-14T05:29:25.870Z,123.75
2023-05-14T05:30:26.058Z,112.50
2023-05-14T05:31:25.926Z,123.75
2023-05-14T05:32:25.895Z,129.38
2023-05-14T05:33:25.902Z,135.00
2023-05-14T05:34:25.888Z,135.00
2023-05-14T05:35:26.328Z,140.62
2023-05-14T05:36:26.299Z,146.25
2023-05-14T05:37:25.760Z,151.88
2023-05-14T05:38:25.754Z,157.50
2023-05-14T05:39:25.800Z,163.12
2023-05-14T05:40:25.928Z,168.75
2023-05-14T05:41:25.731Z,168.75
2023-05-14T05:42:25.728Z,174.38
2023-05-14T05:43:25.770Z,163.12
2023-05-14T05:44:25.735Z,157.50
2023-05-14T05:45:25.901Z,163.12
2023-05-14T05:46:25.826Z,174.38
2023-05-14T05:47:26.060Z,174.38
2023-05-14T05:48:26.136Z,180.00
2023-05-14T05:49:26.241Z,185.62
2023-05-14T05:50:26.118Z,196.88
2023-05-14T05:51:25.661Z,208.12
2023-05-14T05:52:25.689Z,219.38
2023-05-14T05:53:26.504Z,230.62
2023-05-14T05:54:26.045Z,236.25
2023-05-14T05:55:26.157Z,241.88
2023-05-14T05:56:25.605Z,247.50
2023-05-14T05:57:26.380Z,253.12
2023-05-14T05:58:25.621Z,275.62
2023-05-14T05:59:25.640Z,286.88
2023-05-14T06:00:25.979Z,281.25
2023-05-14T06:01:25.691Z,275.62
2023-05-14T06:02:25.825Z,264.38
2023-05-14T06:03:25.704Z,258.75
2023-05-14T06:04:25.857Z,258.75
2023-05-14T06:05:25.736Z,258.75
2023-05-14T06:06:25.951Z,247.50
2023-05-14T06:07:25.703Z,236.25
2023-05-14T06:08:25.557Z,230.62
2023-05-14T06:09:25.564Z,230.62
2023-05-14T06:10:25.789Z,225.00
2023-05-14T06:11:25.682Z,219.38
2023-05-14T06:12:25.815Z,219.38
2023-05-14T06:13:25.806Z,219.38
2023-05-14T06:14:25.857Z,219.38
2023-05-14T06:15:25.912Z,219.38
2023-05-14T06:16:25.996Z,230.62
2023-05-14T06:17:25.693Z,236.25
2023-05-14T06:18:25.940Z,241.88
2023-05-14T06:19:26.134Z,241.88
2023-05-14T06:20:26.503Z,241.88
2023-05-14T06:21:26.142Z,236.25
2023-05-14T06:22:25.758Z,225.00
2023-05-14T06:23:25.443Z,213.75
2023-05-14T06:24:25.506Z,208.12
2023-05-14T06:25:26.166Z,196.88
2023-05-14T06:26:26.206Z,185.62
2023-05-14T06:27:25.519Z,180.00
2023-05-14T06:28:25.417Z,174.38
2023-05-14T06:29:25.421Z,174.38
2023-05-14T06:30:25.749Z,163.12
2023-05-14T06:31:25.468Z,163.12
2023-05-14T06:32:26.210Z,157.50
2023-05-14T06:33:25.437Z,157.50
2023-05-14T06:34:25.446Z,151.88
2023-05-14T06:35:25.449Z,151.88
2023-05-14T06:36:25.458Z,151.88
2023-05-14T06:37:25.389Z,135.00
2023-05-14T06:38:25.345Z,135.00
2023-05-14T06:39:25.366Z,129.38
2023-05-14T06:40:25.574Z,129.38
2023-05-14T06:41:25.413Z,129.38
2023-05-14T06:42:25.312Z,129.38
2023-05-14T06:43:25.301Z,129.38
2023-05-14T06:44:25.450Z,129.38
2023-05-14T06:45:25.314Z,135.00
2023-05-14T06:46:25.473Z,135.00
2023-05-14T06:47:25.361Z,135.00
2023-05-14T06:48:25.569Z,140.62
2023-05-14T06:49:25.496Z,140.62
2023-05-14T06:50:25.765Z,140.62
2023-05-14T06:51:25.285Z,140.62
2023-05-14T06:52:25.236Z,140.62
2023-05-14T06:53:25.243Z,146.25
2023-05-14T06:54:25.285Z,146.25
2023-05-14T06:55:25.245Z,146.25
2023-05-14T06:56:25.252Z,146.25
2023-05-14T06:57:25.256Z,151.88
2023-05-14T06:58:25.208Z,163.12
2023-05-14T06:59:25.201Z,168.75
2023-05-14T07:00:25.676Z,174.38
2023-05-14T07:01:25.344Z,185.62
2023-05-14T07:02:25.252Z,185.62
2023-05-14T07:03:25.334Z,191.25
2023-05-14T07:04:25.370Z,196.88
2023-05-14T07:05:25.233Z,191.25
2023-05-14T07:06:25.248Z,191.25
2023-05-14T07:07:25.392Z,185.62
2023-05-14T07:08:25.121Z,185.62
2023-05-14T07:09:25.478Z,185.62
2023-05-14T07:10:25.639Z,180.00
2023-05-14T07:11:25.120Z,174.38
2023-05-14T07:12:25.132Z,174.38
2023-05-14T07:13:27.641Z,185.62
2023-05-14T07:14:25.116Z,191.25
2023-05-14T07:15:25.142Z,208.12
2023-05-14T07:16:25.166Z,208.12
2023-05-14T07:17:25.354Z,208.12
2023-05-14T07:18:25.392Z,202.50
2023-05-14T07:19:25.426Z,191.25
2023-05-14T07:20:25.645Z,185.62
2023-05-14T07:21:25.553Z,185.62
2023-05-14T07:22:25.029Z,180.00
2023-05-14T07:23:25.601Z,174.38
2023-05-14T07:24:25.585Z,185.62
2023-05-14T07:25:25.587Z,191.25
2023-05-14T07:26:25.587Z,191.25
2023-05-14T07:27:25.618Z,174.38
2023-05-14T07:28:25.609Z,180.00
2023-05-14T07:29:25.203Z,180.00
2023-05-14T07:30:25.846Z,185.62
2023-05-14T07:31:25.608Z,208.12
2023-05-14T07:32:25.498Z,202.50
2023-05-14T07:33:25.011Z,191.25
2023-05-14T07:34:25.026Z,185.62
2023-05-14T07:35:25.230Z,185.62
2023-05-14T07:36:24.976Z,185.62
2023-05-14T07:37:24.930Z,202.50
2023-05-14T07:38:25.048Z,196.88
2023-05-14T07:39:24.984Z,196.88
2023-05-14T07:40:25.519Z,213.75
2023-05-14T07:41:25.073Z,202.50
2023-05-14T07:42:35.303Z,213.75
2023-05-14T07:43:25.225Z,219.38
2023-05-14T07:44:25.307Z,213.75
2023-05-14T07:45:24.913Z,219.38
2023-05-14T07:46:24.926Z,219.38
2023-05-14T07:47:25.002Z,213.75
2023-05-14T07:48:24.931Z,213.75
2023-05-14T07:49:24.853Z,213.75
2023-05-14T07:50:25.241Z,213.75
2023-05-14T07:51:24.928Z,213.75
2023-05-14T07:52:25.044Z,219.38
2023-05-14T07:53:24.942Z,219.38
2023-05-14T07:54:24.962Z,219.38
2023-05-14T07:55:24.953Z,219.38
2023-05-14T07:56:25.011Z,225.00
2023-05-14T07:57:24.825Z,219.38
2023-05-14T07:58:24.983Z,219.38
2023-05-14T07:59:24.981Z,219.38
2023-05-14T08:00:25.254Z,225.00
2023-05-14T08:01:24.827Z,225.00
2023-05-14T08:02:24.842Z,225.00
2023-05-14T08:03:25.220Z,202.50
2023-05-14T08:04:25.146Z,219.38
2023-05-14T08:05:25.080Z,213.75
2023-05-14T08:06:24.757Z,219.38
2023-05-14T08:07:24.714Z,219.38
2023-05-14T08:08:24.764Z,225.00
2023-05-14T08:09:24.700Z,225.00
2023-05-14T08:10:25.024Z,225.00
2023-05-14T08:11:24.711Z,225.00
2023-05-14T08:12:24.694Z,225.00
2023-05-14T08:13:24.713Z,225.00
2023-05-14T08:14:24.989Z,213.75
2023-05-14T08:15:27.549Z,208.12
2023-05-14T08:16:25.168Z,230.62
2023-05-14T08:17:24.922Z,236.25
2023-05-14T08:18:25.242Z,202.50
2023-05-14T08:19:25.290Z,230.62
2023-05-14T08:20:25.868Z,230.62
2023-05-14T08:21:24.790Z,225.00
2023-05-14T08:22:25.487Z,191.25
2023-05-14T08:23:24.623Z,230.62
2023-05-14T08:24:24.741Z,230.62
2023-05-14T08:25:25.360Z,230.62
2023-05-14T08:26:24.616Z,241.88
2023-05-14T08:27:24.637Z,230.62
2023-05-14T08:28:24.572Z,213.75
2023-05-14T08:29:24.640Z,213.75
2023-05-14T08:30:24.876Z,213.75
2023-05-14T08:31:24.658Z,213.75
2023-05-14T08:32:24.658Z,213.75
2023-05-14T08:33:24.601Z,236.25
2023-05-14T08:34:24.602Z,241.88
2023-05-14T08:35:24.644Z,247.50
2023-05-14T08:36:24.602Z,241.88
2023-05-14T08:37:24.622Z,247.50
2023-05-14T08:38:24.593Z,247.50
2023-05-14T08:39:24.524Z,247.50
2023-05-14T08:40:24.709Z,241.88
2023-05-14T08:41:24.525Z,247.50
2023-05-14T08:42:24.532Z,247.50
2023-05-14T08:43:24.676Z,241.88
2023-05-14T08:44:24.547Z,247.50
2023-05-14T08:45:24.549Z,247.50
2023-05-14T08:46:24.697Z,247.50
2023-05-14T08:47:24.516Z,247.50
2023-05-14T08:48:24.575Z,247.50
2023-05-14T08:49:24.787Z,247.50
2023-05-14T08:50:25.175Z,247.50
2023-05-14T08:51:24.714Z,247.50
2023-05-14T08:52:24.806Z,247.50
2023-05-14T08:53:24.825Z,247.50
2023-05-14T08:54:24.847Z,247.50
2023-05-14T08:55:24.408Z,253.12
2023-05-14T08:56:24.620Z,253.12
2023-05-14T08:57:24.418Z,253.12
2023-05-14T08:58:24.911Z,253.12
2023-05-14T08:59:24.899Z,253.12
2023-05-14T09:00:24.869Z,253.12
2023-05-14T09:01:24.642Z,253.12
2023-05-14T09:02:24.537Z,258.75
2023-05-14T09:03:24.975Z,258.75
2023-05-14T09:04:24.967Z,258.75
2023-05-14T09:05:24.496Z,258.75
2023-05-14T09:06:24.994Z,258.75
2023-05-14T09:07:24.421Z,264.38
2023-05-14T09:08:24.323Z,264.38
2023-05-14T09:09:24.328Z,270.00
2023-05-14T09:10:24.765Z,275.62
2023-05-14T09:11:24.481Z,270.00
2023-05-14T09:12:24.557Z,270.00
2023-05-14T09:13:25.807Z,270.00
2023-05-14T09:14:24.670Z,270.00
2023-05-14T09:15:24.340Z,275.62
2023-05-14T09:16:24.849Z,281.25
2023-05-14T09:17:24.330Z,281.25
2023-05-14T09:18:24.979Z,281.25
2023-05-14T09:19:24.965Z,286.88
2023-05-14T09:20:25.535Z,286.88
2023-05-14T09:21:24.847Z,292.50
2023-05-14T09:22:24.397Z,320.62
2023-05-14T09:23:24.803Z,343.12
2023-05-14T09:24:24.530Z,365.62
2023-05-14T09:25:25.254Z,360.00
2023-05-14T09:26:24.949Z,354.38
2023-05-14T09:27:24.551Z,343.12
2023-05-14T09:28:24.750Z,343.12
2023-05-14T09:29:24.199Z,331.88
2023-05-14T09:30:25.361Z,337.50
2023-05-14T09:31:24.175Z,360.00
2023-05-14T09:32:24.695Z,371.25
2023-05-14T09:33:24.473Z,371.25
2023-05-14T09:34:24.824Z,371.25
2023-05-14T09:35:25.027Z,371.25
2023-05-14T09:36:24.109Z,360.00
2023-05-14T09:37:24.107Z,354.38
2023-05-14T09:38:24.114Z,360.00
2023-05-14T09:39:24.188Z,354.38
2023-05-14T09:40:24.819Z,343.12
2023-05-14T09:41:24.127Z,331.88
2023-05-14T09:42:24.236Z,320.62
2023-05-14T09:43:24.098Z,315.00
2023-05-14T09:44:24.136Z,309.38
2023-05-14T09:45:24.429Z,303.75
2023-05-14T09:46:24.441Z,298.12
2023-05-14T09:47:24.575Z,298.12
2023-05-14T09:48:24.557Z,298.12
2023-05-14T09:49:24.248Z,298.12
2023-05-14T09:50:24.667Z,298.12
2023-05-14T09:51:24.009Z,292.50
2023-05-14T09:52:23.998Z,292.50
2023-05-14T09:53:24.027Z,298.12
2023-05-14T09:54:24.010Z,298.12
2023-05-14T09:55:23.997Z,298.12
2023-05-14T09:56:23.973Z,298.12
2023-05-14T09:57:23.995Z,303.75
2023-05-14T09:58:24.345Z,303.75
2023-05-14T09:59:24.029Z,303.75
2023-05-14T10:00:24.106Z,303.75
2023-05-14T10:01:24.522Z,309.38
2023-05-14T10:02:24.567Z,315.00
2023-05-14T10:03:24.029Z,309.38
2023-05-14T10:04:23.975Z,309.38
2023-05-14T10:05:23.927Z,309.38
2023-05-14T10:06:23.972Z,320.62
2023-05-14T10:07:24.037Z,337.50
2023-05-14T10:08:23.956Z,354.38
2023-05-14T10:09:23.903Z,354.38
2023-05-14T10:10:24.283Z,360.00
2023-05-14T10:11:23.945Z,371.25
2023-05-14T10:12:24.215Z,371.25
2023-05-14T10:13:24.161Z,399.38
2023-05-14T10:14:24.469Z,416.25
2023-05-14T10:15:24.507Z,416.25
2023-05-14T10:16:24.447Z,416.25
2023-05-14T10:17:24.057Z,405.00
2023-05-14T10:18:24.700Z,399.38
2023-05-14T10:19:24.339Z,410.62
2023-05-14T10:20:24.399Z,405.00
2023-05-14T10:21:24.489Z,388.12
2023-05-14T10:22:23.963Z,371.25
2023-05-14T10:23:24.821Z,365.62
2023-05-14T10:24:24.281Z,360.00
2023-05-14T10:25:24.097Z,348.75
2023-05-14T10:26:24.357Z,343.12
2023-05-14T10:27:24.633Z,348.75
2023-05-14T10:28:23.965Z,376.88
2023-05-14T10:29:24.269Z,382.50
2023-05-14T10:30:24.427Z,393.75
2023-05-14T10:31:24.118Z,399.38
2023-05-14T10:32:23.885Z,450.00
2023-05-14T10:33:23.806Z,450.00
2023-05-14T10:34:23.804Z,483.75
2023-05-14T10:35:23.933Z,523.12
2023-05-14T10:36:23.739Z,506.25
2023-05-14T10:37:23.744Z,472.50
2023-05-14T10:38:23.839Z,438.75
2023-05-14T10:39:23.855Z,405.00
2023-05-14T10:40:24.284Z,376.88
2023-05-14T10:41:23.986Z,371.25
2023-05-14T10:42:23.988Z,376.88
2023-05-14T10:43:23.986Z,399.38
2023-05-14T10:44:24.089Z,416.25
2023-05-14T10:45:24.112Z,444.38
2023-05-14T10:46:23.830Z,489.38
2023-05-14T10:47:23.821Z,540.00
2023-05-14T10:48:23.776Z,573.75
2023-05-14T10:49:36.187Z,624.38
2023-05-14T10:50:24.116Z,753.75
2023-05-14T10:51:23.767Z,1648.12
2023-05-14T10:52:23.843Z,2559.38
2023-05-14T10:53:23.739Z,2565.00
2023-05-14T10:54:23.751Z,2767.50
2023-05-14T10:55:23.668Z,2998.12
2023-05-14T10:56:23.555Z,2986.88
2023-05-14T10:57:23.766Z,646.88
2023-05-14T10:58:23.763Z,517.50
2023-05-14T10:59:23.775Z,686.25
2023-05-14T11:00:24.044Z,2716.88
2023-05-14T11:01:23.552Z,3521.25
2023-05-14T11:02:23.568Z,3211.88
2023-05-14T11:03:23.691Z,3279.38
2023-05-14T11:04:23.706Z,3144.38
2023-05-14T11:05:23.661Z,2992.50
2023-05-14T11:06:23.558Z,2666.25
2023-05-14T11:07:23.604Z,2902.50
2023-05-14T11:08:26.476Z,3853.12
2023-05-14T11:09:23.854Z,3785.62
2023-05-14T11:10:24.195Z,3673.12
2023-05-14T11:11:23.496Z,3341.25
2023-05-14T11:12:23.661Z,3571.88
2023-05-14T11:13:23.617Z,3358.12
2023-05-14T11:14:23.742Z,3768.75
2023-05-14T11:15:23.938Z,3847.50
2023-05-14T11:16:24.137Z,3588.75
2023-05-14T11:17:23.449Z,3425.62
2023-05-14T11:18:23.976Z,3352.50
2023-05-14T11:19:23.984Z,3751.88
2023-05-14T11:20:23.866Z,3858.75
2023-05-14T11:21:23.562Z,3650.62
2023-05-14T11:22:23.465Z,3116.25
2023-05-14T11:23:23.818Z,3431.25
2023-05-14T11:24:23.396Z,3566.25
2023-05-14T11:25:23.396Z,3476.25
2023-05-14T11:26:23.402Z,3588.75
2023-05-14T11:27:23.412Z,3459.38
2023-05-14T11:28:23.405Z,3521.25
2023-05-14T11:29:23.409Z,3453.75
2023-05-14T11:30:23.648Z,3498.75
2023-05-14T11:31:23.370Z,3622.50
2023-05-14T11:32:23.487Z,3600.00
2023-05-14T11:33:23.455Z,3588.75
2023-05-14T11:35:49.344Z,4393.12
2023-05-14T11:36:49.357Z,4235.62
2023-05-14T11:37:49.389Z,4005.00
2023-05-14T11:38:49.385Z,3830.62
2023-05-14T11:39:49.280Z,3965.62
2023-05-14T11:40:49.294Z,4016.25
2023-05-14T11:41:49.278Z,3960.00
2023-05-14T11:42:49.292Z,3971.25
2023-05-14T11:43:49.307Z,3830.62
2023-05-14T11:44:49.319Z,3836.25
2023-05-14T11:45:49.354Z,3819.38
2023-05-14T11:46:49.346Z,3543.75
2023-05-14T11:47:49.269Z,3476.25
2023-05-14T11:48:49.379Z,3391.88
2023-05-14T11:49:49.241Z,3538.12
2023-05-14T11:50:49.314Z,3757.50
2023-05-14T11:51:49.279Z,3870.00
2023-05-14T11:52:49.266Z,4095.00
2023-05-14T11:53:49.227Z,4061.25
2023-05-14T11:54:49.340Z,3864.38
2023-05-14T11:55:49.275Z,4010.62
2023-05-14T11:56:49.484Z,3746.25
2023-05-14T11:57:49.253Z,3555.00
2023-05-14T11:58:49.436Z,3965.62
2023-05-14T11:59:49.157Z,3543.75
2023-05-14T12:00:49.225Z,2756.25
2023-05-14T12:01:50.672Z,3093.75
2023-05-14T12:02:49.453Z,2587.50
2023-05-14T12:03:49.482Z,2902.50
2023-05-14T12:04:49.246Z,4123.12
2023-05-14T12:05:49.317Z,4201.88
2023-05-14T12:06:49.552Z,3892.50
2023-05-14T12:07:49.151Z,2705.62
2023-05-14T12:08:49.132Z,3577.50
2023-05-14T12:09:49.172Z,3768.75
2023-05-14T12:10:49.178Z,4061.25
2023-05-14T12:11:49.135Z,4308.75
2023-05-14T12:12:49.280Z,3976.88
2023-05-14T12:13:49.123Z,3420.00
2023-05-14T12:14:49.096Z,3054.38
2023-05-14T12:15:49.212Z,3408.75
2023-05-14T12:16:49.066Z,3830.62
2023-05-14T12:17:49.081Z,3785.62
2023-05-14T12:18:49.106Z,3695.62
2023-05-14T12:19:49.073Z,3470.62
2023-05-14T12:20:49.188Z,3189.38
2023-05-14T12:21:49.197Z,2424.38
2023-05-14T12:22:49.152Z,3560.62
2023-05-14T12:23:49.018Z,3965.62
2023-05-14T12:24:49.080Z,3785.62
2023-05-14T12:25:49.207Z,3510.00
2023-05-14T12:26:49.217Z,3504.38
2023-05-14T12:27:49.251Z,3650.62
2023-05-14T12:28:49.198Z,3836.25
2023-05-14T12:29:49.227Z,3656.25
2023-05-14T12:30:49.214Z,3510.00
2023-05-14T12:31:49.106Z,3588.75
2023-05-14T12:32:49.202Z,2975.62
2023-05-14T12:33:49.096Z,1856.25
2023-05-14T12:34:49.142Z,1333.12
2023-05-14T12:35:49.070Z,3453.75
2023-05-14T12:36:49.098Z,995.62
2023-05-14T12:37:49.225Z,973.12
2023-05-14T12:38:49.155Z,2334.38
2023-05-14T12:39:48.994Z,1395.00
2023-05-14T12:40:49.231Z,984.38
2023-05-14T12:41:49.380Z,1006.88
2023-05-14T12:42:49.199Z,1057.50